Time;durP1;ratioP1;P1;durP2;ratioP2;P2;SDS_P1;SDS_P2;PMS_P1;PMS_P2;Temp;Humidity;BMP_temperature;BMP_pressure;BME280_temperature;BME280_humidity;BME280_pressure;Samples;Min_cycle;Max_cycle;Signal;HPM_P1;HPM_P2
2023/09/19 00:00:24;;;;;;;6.95;4.90;;;17.30;99.90;;;;;;2094417;28;20097;-75
2023/09/19 00:01:25;;;;;;;5.90;4.43;;;17.30;99.90;;;;;;2088613;28;20033;-75
2023/09/19 00:02:26;;;;;;;8.95;4.82;;;17.30;99.90;;;;;;2082893;28;20074;-75
2023/09/19 00:03:28;;;;;;;5.55;4.32;;;17.30;99.90;;;;;;2090035;28;20032;-74
2023/09/19 00:04:32;;;;;;;6.20;4.80;;;17.30;99.90;;;;;;2084083;28;20025;-76
2023/09/19 00:05:44;;;;;;;7.47;4.78;;;17.30;99.90;;;;;;2083740;28;20037;-74
2023/09/19 00:06:44;;;;;;;7.40;5.28;;;17.30;99.90;;;;;;2086687;28;20112;-75
2023/09/19 00:07:45;;;;;;;6.72;5.00;;;17.30;99.90;;;;;;2084951;28;20033;-74
2023/09/19 00:08:47;;;;;;;7.20;5.20;;;17.30;99.90;;;;;;2091721;28;20024;-73
2023/09/19 00:09:48;;;;;;;8.75;5.18;;;17.30;99.90;;;;;;2079305;28;20021;-74
2023/09/19 00:10:48;;;;;;;8.02;5.15;;;17.30;99.90;;;;;;2069783;28;20153;-74
2023/09/19 00:11:50;;;;;;;8.50;5.30;;;17.30;99.90;;;;;;2083166;28;20031;-74
2023/09/19 00:12:53;;;;;;;9.15;5.22;;;17.30;99.90;;;;;;2092656;28;20103;-74
2023/09/19 00:13:53;;;;;;;5.43;4.72;;;17.30;99.90;;;;;;2088352;28;20032;-74
2023/09/19 00:14:54;;;;;;;7.60;4.88;;;17.30;99.90;;;;;;2084713;28;20025;-74
2023/09/19 00:15:55;;;;;;;8.20;5.22;;;17.30;99.90;;;;;;2083896;28;20523;-74
2023/09/19 00:16:56;;;;;;;7.78;4.70;;;17.30;99.90;;;;;;2092087;28;20024;-75
2023/09/19 00:17:56;;;;;;;6.45;4.57;;;17.30;99.90;;;;;;2092392;28;20028;-75
2023/09/19 00:18:58;;;;;;;7.10;5.07;;;17.30;99.90;;;;;;2079200;28;20113;-75
2023/09/19 00:19:58;;;;;;;7.10;4.88;;;17.30;99.90;;;;;;2091158;28;20106;-75
2023/09/19 00:20:59;;;;;;;5.88;5.00;;;17.20;99.90;;;;;;2094788;28;20040;-75
2023/09/19 00:21:59;;;;;;;10.18;5.35;;;17.30;99.90;;;;;;2083197;28;20033;-75
2023/09/19 00:23:08;;;;;;;8.85;5.10;;;17.30;99.90;;;;;;2081990;28;20033;-75
2023/09/19 00:24:08;;;;;;;6.50;4.88;;;17.20;99.90;;;;;;2084670;28;20020;-73
2023/09/19 00:25:09;;;;;;;8.95;5.18;;;17.20;99.90;;;;;;2092040;28;20040;-74
2023/09/19 00:26:10;;;;;;;6.75;4.80;;;17.20;99.90;;;;;;2089548;28;20181;-74
2023/09/19 00:27:11;;;;;;;6.07;4.68;;;17.20;99.90;;;;;;2090717;28;20100;-74
2023/09/19 00:28:12;;;;;;;6.20;4.38;;;17.20;99.90;;;;;;2085307;28;20451;-75
2023/09/19 00:29:16;;;;;;;6.43;4.35;;;17.20;99.90;;;;;;2088013;28;20032;-75
2023/09/19 00:30:20;;;;;;;8.02;4.25;;;17.20;99.90;;;;;;2083056;28;20064;-75
2023/09/19 00:31:25;;;;;;;6.28;4.25;;;17.20;99.90;;;;;;2086141;28;20504;-75
2023/09/19 00:32:31;;;;;;;5.65;4.13;;;17.20;99.90;;;;;;2079477;28;20035;-74
2023/09/19 00:33:32;;;;;;;8.25;4.30;;;17.20;99.90;;;;;;2073931;28;20679;-74
2023/09/19 00:34:34;;;;;;;7.38;4.50;;;17.20;99.90;;;;;;2082937;28;20082;-74
2023/09/19 00:35:34;;;;;;;6.15;4.10;;;17.20;99.90;;;;;;2082800;28;20025;-74
2023/09/19 00:36:38;;;;;;;6.05;4.22;;;17.20;99.90;;;;;;2086521;28;20048;-74
2023/09/19 00:37:39;;;;;;;6.78;4.45;;;17.20;99.90;;;;;;2091524;28;20122;-74
2023/09/19 00:38:40;;;;;;;5.93;4.00;;;17.20;99.90;;;;;;2088823;28;20017;-74
2023/09/19 00:39:40;;;;;;;5.18;3.90;;;17.20;99.90;;;;;;2090581;28;20090;-74
2023/09/19 00:40:44;;;;;;;5.88;3.60;;;17.20;99.90;;;;;;2079017;28;20106;-75
2023/09/19 00:41:45;;;;;;;6.63;3.90;;;17.20;99.90;;;;;;2087528;28;20047;-75
2023/09/19 00:42:46;;;;;;;6.35;4.00;;;17.20;99.90;;;;;;2090367;28;20733;-75
2023/09/19 00:43:50;;;;;;;5.90;3.92;;;17.20;99.90;;;;;;2078101;28;20033;-75
2023/09/19 00:44:51;;;;;;;6.05;4.07;;;17.20;99.90;;;;;;2077956;28;20037;-76
2023/09/19 00:45:54;;;;;;;4.85;3.80;;;17.20;99.90;;;;;;2090034;28;20041;-73
2023/09/19 00:46:55;;;;;;;6.25;4.20;;;17.20;99.90;;;;;;2088578;28;20119;-73
2023/09/19 00:47:57;;;;;;;6.47;4.00;;;17.20;99.90;;;;;;2079751;28;20141;-73
2023/09/19 00:48:57;;;;;;;5.22;3.90;;;17.20;99.90;;;;;;2085808;28;20476;-73
2023/09/19 00:49:58;;;;;;;6.18;4.63;;;17.20;99.90;;;;;;2090094;28;20099;-74
2023/09/19 00:51:04;;;;;;;6.55;4.75;;;17.20;99.90;;;;;;2094910;28;20050;-73
2023/09/19 00:52:05;;;;;;;7.18;4.90;;;17.20;99.90;;;;;;2086753;28;20032;-72
2023/09/19 00:53:07;;;;;;;6.57;4.70;;;17.20;99.90;;;;;;2082650;28;20056;-73
2023/09/19 00:54:09;;;;;;;9.52;5.07;;;17.20;99.90;;;;;;2082670;28;20108;-73
2023/09/19 00:55:11;;;;;;;8.80;5.07;;;17.20;99.90;;;;;;2082587;28;20021;-73
2023/09/19 00:56:12;;;;;;;8.07;4.60;;;17.20;99.90;;;;;;2074497;28;20051;-74
2023/09/19 00:57:19;;;;;;;6.60;5.10;;;17.20;99.90;;;;;;2089276;28;20107;-75
2023/09/19 00:58:20;;;;;;;7.65;5.13;;;17.20;99.90;;;;;;2088235;28;20060;-74
2023/09/19 00:59:22;;;;;;;7.35;5.40;;;17.20;99.90;;;;;;2081695;28;20040;-74
2023/09/19 01:00:23;;;;;;;6.50;5.30;;;17.20;99.90;;;;;;2091680;28;20444;-75
2023/09/19 01:01:25;;;;;;;6.80;5.50;;;17.20;99.90;;;;;;2088081;28;20038;-75
2023/09/19 01:02:29;;;;;;;7.60;5.00;;;17.10;99.90;;;;;;2077520;28;20021;-75
2023/09/19 01:03:31;;;;;;;8.95;5.07;;;17.20;99.90;;;;;;2083918;28;20112;-75
2023/09/19 01:04:33;;;;;;;6.60;5.25;;;17.20;99.90;;;;;;2082089;28;20036;-75
2023/09/19 01:05:34;;;;;;;7.78;5.47;;;17.20;99.90;;;;;;2078789;28;20606;-75
2023/09/19 01:06:36;;;;;;;8.73;5.60;;;17.20;99.90;;;;;;2081964;28;20021;-75
2023/09/19 01:07:41;;;;;;;9.35;5.65;;;17.20;99.90;;;;;;2090003;28;20064;-75
2023/09/19 01:08:41;;;;;;;8.38;5.65;;;17.20;99.90;;;;;;2090601;28;20061;-75
2023/09/19 01:09:42;;;;;;;7.93;6.43;;;17.20;99.90;;;;;;2072442;28;20079;-74
2023/09/19 01:10:52;;;;;;;9.05;5.57;;;17.20;99.90;;;;;;2071658;28;20021;-73
2023/09/19 01:11:59;;;;;;;7.68;5.45;;;17.20;99.90;;;;;;2078288;28;20105;-74
2023/09/19 01:13:21;;;;;;;6.28;5.10;;;17.20;99.90;;;;;;2078978;28;20037;-73
2023/09/19 01:14:44;;;;;;;7.93;5.47;;;17.20;99.90;;;;;;2090239;28;20458;-74
2023/09/19 01:15:57;;;;;;;7.93;5.85;;;17.20;99.90;;;;;;2086859;28;20025;-74
2023/09/19 01:17:23;;;;;;;7.70;5.82;;;17.20;99.90;;;;;;2085356;28;20032;-74
2023/09/19 01:18:55;;;;;;;6.28;5.30;;;17.20;99.90;;;;;;2085579;28;20056;-75
2023/09/19 01:20:27;;;;;;;7.45;5.97;;;17.20;99.90;;;;;;2088714;28;20029;-75
2023/09/19 01:21:37;;;;;;;9.07;6.05;;;17.10;99.90;;;;;;2082432;28;20033;-74
2023/09/19 01:22:47;;;;;;;8.35;5.93;;;17.10;99.90;;;;;;2082526;28;20120;-74
2023/09/19 01:24:06;;;;;;;8.67;6.27;;;17.10;99.90;;;;;;2086532;28;20037;-74
2023/09/19 01:25:33;;;;;;;9.40;6.20;;;17.10;99.90;;;;;;2084532;28;20275;-73
2023/09/19 01:26:54;;;;;;;8.88;6.32;;;17.10;99.90;;;;;;2094042;28;20020;-74
2023/09/19 01:28:00;;;;;;;7.60;6.35;;;17.10;99.90;;;;;;2085852;28;20036;-74
2023/09/19 01:29:19;;;;;;;8.02;6.50;;;17.10;99.90;;;;;;2091596;28;20024;-74
2023/09/19 01:30:27;;;;;;;10.02;6.70;;;17.10;99.90;;;;;;2082596;28;20045;-74
2023/09/19 01:31:33;;;;;;;8.93;6.40;;;17.10;99.90;;;;;;2082436;28;20041;-74
2023/09/19 01:32:34;;;;;;;8.45;6.47;;;17.10;99.90;;;;;;2086846;28;20029;-73
2023/09/19 01:33:57;;;;;;;12.07;6.80;;;17.10;99.90;;;;;;2094105;28;20033;-74
2023/09/19 01:35:03;;;;;;;10.13;7.13;;;17.10;99.90;;;;;;2093130;28;20031;-74
2023/09/19 01:36:05;;;;;;;12.48;7.60;;;17.10;99.90;;;;;;2085581;28;20025;-74
2023/09/19 01:37:05;;;;;;;12.32;7.22;;;17.10;99.90;;;;;;2078904;28;20107;-74
2023/09/19 01:38:09;;;;;;;9.85;7.05;;;17.10;99.90;;;;;;2082831;28;20036;-74
2023/09/19 01:39:15;;;;;;;10.15;6.93;;;17.10;99.90;;;;;;2090724;28;20027;-71
2023/09/19 01:40:20;;;;;;;9.80;7.13;;;17.10;99.90;;;;;;2083482;28;20029;-74
2023/09/19 01:41:49;;;;;;;10.00;7.00;;;17.10;99.90;;;;;;2085182;28;20041;-74
2023/09/19 01:43:18;;;;;;;8.68;7.10;;;17.10;99.90;;;;;;2077757;28;20025;-75
2023/09/19 01:44:53;;;;;;;9.15;7.10;;;17.00;99.90;;;;;;2077930;28;20162;-75
2023/09/19 01:46:04;;;;;;;10.82;7.25;;;17.00;99.90;;;;;;2060825;28;20034;-73
2023/09/19 01:47:26;;;;;;;9.40;7.28;;;17.10;99.90;;;;;;2079927;28;20026;-74
2023/09/19 01:48:42;;;;;;;9.63;7.50;;;17.10;99.90;;;;;;2085122;28;20040;-76
2023/09/19 01:49:55;;;;;;;10.23;7.95;;;17.10;99.90;;;;;;2085820;28;20023;-74
2023/09/19 01:51:30;;;;;;;11.35;7.55;;;17.00;99.90;;;;;;2086388;28;20499;-74
2023/09/19 01:52:42;;;;;;;10.65;7.97;;;17.00;99.90;;;;;;2089759;28;20071;-74
2023/09/19 01:54:02;;;;;;;12.25;8.18;;;17.00;99.90;;;;;;2083779;28;20100;-75
2023/09/19 01:55:08;;;;;;;11.20;7.27;;;17.00;99.90;;;;;;2087497;28;20056;-73
2023/09/19 01:56:16;;;;;;;11.45;7.63;;;17.00;99.90;;;;;;2076179;28;20269;-74
2023/09/19 01:57:26;;;;;;;9.43;7.65;;;17.00;99.90;;;;;;2075692;28;20060;-74
2023/09/19 01:58:42;;;;;;;8.80;5.53;;;17.00;99.90;;;;;;2084230;28;20029;-74
2023/09/19 01:59:52;;;;;;;8.73;6.25;;;17.10;99.90;;;;;;2084469;28;20421;-74
2023/09/19 02:00:55;;;;;;;7.55;5.75;;;17.10;99.90;;;;;;2087912;28;20431;-74
2023/09/19 02:01:56;;;;;;;7.68;5.65;;;17.10;99.90;;;;;;2086747;28;20057;-74
2023/09/19 02:02:59;;;;;;;6.93;5.28;;;17.10;99.90;;;;;;2074161;28;20876;-73
2023/09/19 02:04:01;;;;;;;8.30;5.60;;;17.10;99.90;;;;;;2074757;28;20702;-74
2023/09/19 02:05:03;;;;;;;8.30;5.00;;;17.10;99.90;;;;;;2074089;28;20033;-75
2023/09/19 02:06:05;;;;;;;7.60;5.05;;;17.10;99.90;;;;;;2082342;28;20234;-74
2023/09/19 02:07:06;;;;;;;5.88;4.93;;;17.10;99.90;;;;;;2082952;28;20040;-73
2023/09/19 02:08:06;;;;;;;7.20;4.47;;;17.10;99.90;;;;;;2082413;28;20044;-73
2023/09/19 02:09:07;;;;;;;5.55;4.25;;;17.20;99.90;;;;;;2088522;28;20543;-74
2023/09/19 02:10:10;;;;;;;5.40;3.75;;;17.20;99.90;;;;;;2082712;28;20064;-73
2023/09/19 02:11:13;;;;;;;5.22;4.03;;;17.20;99.90;;;;;;2090441;28;20513;-73
2023/09/19 02:12:15;;;;;;;7.30;4.90;;;17.30;99.90;;;;;;2090468;28;20457;-72
2023/09/19 02:13:18;;;;;;;6.40;4.85;;;17.30;99.90;;;;;;2090634;28;20141;-73
2023/09/19 02:14:19;;;;;;;6.75;4.50;;;17.30;99.90;;;;;;2102659;28;20110;-73
2023/09/19 02:15:20;;;;;;;6.47;4.57;;;17.30;99.90;;;;;;2088135;28;20479;-74
2023/09/19 02:16:21;;;;;;;4.72;4.00;;;17.30;99.90;;;;;;2087937;28;20110;-73
2023/09/19 02:17:21;;;;;;;5.85;4.32;;;17.30;99.90;;;;;;2079741;28;20470;-73
2023/09/19 02:18:22;;;;;;;6.80;4.30;;;17.30;99.90;;;;;;2092224;28;20036;-73
2023/09/19 02:19:22;;;;;;;4.82;3.97;;;17.30;99.90;;;;;;2079657;28;20097;-73
2023/09/19 02:20:26;;;;;;;5.13;3.83;;;17.30;99.90;;;;;;2079213;28;20413;-74
2023/09/19 02:21:29;;;;;;;6.03;4.00;;;17.30;99.90;;;;;;2085152;28;20063;-73
2023/09/19 02:22:30;;;;;;;5.88;4.07;;;17.30;99.90;;;;;;2087224;28;20030;-73
2023/09/19 02:23:30;;;;;;;5.60;4.25;;;17.30;99.90;;;;;;2087571;28;20684;-73
2023/09/19 02:24:31;;;;;;;4.38;3.92;;;17.30;99.90;;;;;;2077180;28;20029;-73
2023/09/19 02:25:32;;;;;;;4.25;3.83;;;17.30;99.90;;;;;;2086694;28;20529;-73
2023/09/19 02:26:35;;;;;;;5.50;4.10;;;17.30;99.90;;;;;;2082903;28;20553;-73
2023/09/19 02:27:37;;;;;;;4.50;3.83;;;17.30;99.90;;;;;;2086553;28;20040;-73
2023/09/19 02:28:37;;;;;;;5.05;3.60;;;17.30;99.90;;;;;;2082963;28;20060;-73
2023/09/19 02:29:38;;;;;;;4.78;3.78;;;17.30;99.90;;;;;;2090288;28;20523;-73
2023/09/19 02:30:38;;;;;;;6.43;3.60;;;17.30;99.90;;;;;;2090783;28;20108;-73
2023/09/19 02:31:39;;;;;;;5.40;4.00;;;17.30;99.90;;;;;;2089211;28;20511;-73
2023/09/19 02:32:40;;;;;;;4.35;3.72;;;17.30;99.90;;;;;;2092142;28;20080;-74
2023/09/19 02:33:40;;;;;;;6.13;4.00;;;17.30;99.90;;;;;;2075758;28;20519;-74
2023/09/19 02:34:41;;;;;;;4.90;3.42;;;17.30;99.90;;;;;;2087634;28;20128;-74
2023/09/19 02:35:42;;;;;;;4.78;3.50;;;17.30;99.90;;;;;;2083834;28;20116;-73
2023/09/19 02:36:44;;;;;;;5.50;3.55;;;17.30;99.90;;;;;;2091686;28;20051;-74
2023/09/19 02:37:45;;;;;;;5.18;3.75;;;17.30;99.90;;;;;;2075001;28;20123;-75
2023/09/19 02:38:45;;;;;;;4.65;3.53;;;17.30;99.90;;;;;;2076408;28;20032;-74
2023/09/19 02:39:46;;;;;;;5.63;3.42;;;17.30;99.90;;;;;;2096232;28;20055;-74
2023/09/19 02:40:46;;;;;;;3.97;3.38;;;17.30;99.90;;;;;;2095395;28;20114;-74
2023/09/19 02:41:47;;;;;;;5.22;3.63;;;17.30;99.90;;;;;;2092574;28;20120;-74
2023/09/19 02:42:49;;;;;;;4.20;3.50;;;17.30;99.90;;;;;;2077253;28;20034;-72
2023/09/19 02:43:50;;;;;;;5.75;3.08;;;17.30;99.90;;;;;;2090732;28;20032;-73
2023/09/19 02:44:50;;;;;;;5.68;3.30;;;17.30;99.90;;;;;;2092924;28;20104;-74
2023/09/19 02:45:54;;;;;;;5.88;3.15;;;17.30;99.90;;;;;;2087168;28;20143;-73
2023/09/19 02:46:57;;;;;;;5.57;3.15;;;17.30;99.90;;;;;;2082550;28;20092;-72
2023/09/19 02:47:58;;;;;;;4.00;3.22;;;17.30;99.90;;;;;;2094847;28;20421;-73
2023/09/19 02:48:58;;;;;;;6.13;3.17;;;17.30;99.90;;;;;;2082625;28;20097;-73
2023/09/19 02:49:59;;;;;;;3.47;2.90;;;17.30;99.90;;;;;;2078278;28;20026;-74
2023/09/19 02:51:00;;;;;;;4.82;3.25;;;17.20;99.90;;;;;;2087394;28;20053;-73
2023/09/19 02:52:00;;;;;;;5.82;3.40;;;17.30;99.90;;;;;;2079928;28;20544;-73
2023/09/19 02:53:01;;;;;;;5.35;2.90;;;17.30;99.90;;;;;;2076615;28;20034;-73
2023/09/19 02:54:05;;;;;;;3.70;2.95;;;17.30;99.90;;;;;;2075697;28;20068;-74
2023/09/19 02:55:06;;;;;;;3.78;2.75;;;17.30;99.90;;;;;;2089626;28;20234;-74
2023/09/19 02:56:07;;;;;;;4.65;2.90;;;17.30;99.90;;;;;;2083537;28;20197;-73
2023/09/19 02:57:07;;;;;;;2.83;2.55;;;17.30;99.90;;;;;;2095411;28;20549;-73
2023/09/19 02:58:11;;;;;;;4.05;2.53;;;17.30;99.90;;;;;;2091590;28;20024;-72
2023/09/19 02:59:11;;;;;;;5.63;2.85;;;17.30;99.90;;;;;;2084198;28;20511;-73
2023/09/19 03:00:13;;;;;;;3.58;2.67;;;17.30;99.90;;;;;;2074720;28;20108;-75
2023/09/19 03:01:14;;;;;;;5.03;2.65;;;17.30;99.90;;;;;;2075564;28;20037;-72
2023/09/19 03:02:15;;;;;;;4.57;2.60;;;17.30;99.90;;;;;;2083756;28;20601;-73
2023/09/19 03:03:16;;;;;;;3.92;2.80;;;17.30;99.90;;;;;;2084385;28;20043;-74
2023/09/19 03:04:20;;;;;;;4.20;2.72;;;17.30;99.90;;;;;;2091120;28;20040;-73
2023/09/19 03:05:23;;;;;;;2.78;2.45;;;17.30;99.90;;;;;;2091827;28;20028;-74
2023/09/19 03:06:25;;;;;;;3.95;2.53;;;17.30;99.90;;;;;;2089274;28;20072;-74
2023/09/19 03:07:25;;;;;;;3.90;2.42;;;17.30;99.90;;;;;;2088525;28;20036;-74
2023/09/19 03:08:26;;;;;;;3.45;2.55;;;17.40;99.90;;;;;;2083731;28;20542;-75
2023/09/19 03:09:27;;;;;;;4.88;2.50;;;17.40;99.90;;;;;;2086971;28;20032;-76
2023/09/19 03:10:29;;;;;;;4.10;2.33;;;17.40;99.90;;;;;;2086217;28;20025;-74
2023/09/19 03:11:31;;;;;;;2.58;2.20;;;17.40;99.90;;;;;;2084995;28;20622;-75
2023/09/19 03:12:33;;;;;;;2.60;2.40;;;17.40;99.90;;;;;;2084832;28;20025;-76
2023/09/19 03:13:36;;;;;;;7.53;2.70;;;17.50;99.90;;;;;;2068157;28;20034;-89
2023/09/19 03:14:37;;;;;;;3.55;2.58;;;17.50;99.90;;;;;;2085961;28;20104;-86
2023/09/19 03:15:43;;;;;;;5.07;2.80;;;17.40;99.90;;;;;;2074509;28;20818;-84
2023/09/19 03:16:44;;;;;;;4.32;2.50;;;17.50;99.90;;;;;;2081213;28;20013;-84
2023/09/19 03:17:48;;;;;;;4.07;2.60;;;17.40;99.90;;;;;;2096299;28;20066;-83
2023/09/19 03:18:53;;;;;;;3.88;2.58;;;17.50;99.90;;;;;;2080244;28;20030;-88
2023/09/19 03:19:54;;;;;;;5.53;2.40;;;17.40;99.90;;;;;;2084872;28;20026;-84
2023/09/19 03:20:56;;;;;;;5.72;2.72;;;17.50;99.90;;;;;;2078019;28;20022;-88
2023/09/19 03:21:57;;;;;;;4.55;2.63;;;17.40;99.90;;;;;;2090771;28;20013;-85
2023/09/19 03:23:00;;;;;;;3.42;2.55;;;17.40;99.90;;;;;;2090804;28;20024;-85
2023/09/19 03:24:03;;;;;;;4.20;2.50;;;17.40;99.90;;;;;;2094822;28;20144;-85
2023/09/19 03:25:07;;;;;;;5.55;2.80;;;17.40;99.90;;;;;;2087209;28;20650;-88
2023/09/19 03:26:09;;;;;;;4.60;2.60;;;17.40;99.90;;;;;;2079758;28;20029;-87
2023/09/19 03:27:10;;;;;;;3.20;2.50;;;17.50;99.90;;;;;;2085726;28;20175;-86
2023/09/19 03:28:11;;;;;;;3.05;2.42;;;17.40;99.90;;;;;;2083529;28;20036;-89
2023/09/19 03:29:13;;;;;;;4.35;2.30;;;17.40;99.90;;;;;;2100718;28;20024;-90
2023/09/19 03:30:16;;;;;;;3.65;2.53;;;17.40;99.90;;;;;;2097636;28;20047;-84
2023/09/19 03:31:17;;;;;;;4.68;2.80;;;17.30;99.90;;;;;;2083802;28;20020;-86
2023/09/19 03:32:17;;;;;;;4.05;2.63;;;17.40;99.90;;;;;;2080873;28;20025;-83
2023/09/19 03:33:18;;;;;;;5.07;2.70;;;17.30;99.90;;;;;;2084209;28;20380;-86
2023/09/19 03:34:19;;;;;;;3.38;2.30;;;17.30;99.90;;;;;;2092134;28;20028;-86
2023/09/19 03:35:21;;;;;;;4.55;2.72;;;17.30;99.90;;;;;;2083106;28;20045;-85
2023/09/19 03:36:22;;;;;;;3.38;2.70;;;17.30;99.90;;;;;;2081455;28;20487;-90
2023/09/19 03:37:23;;;;;;;3.65;2.63;;;17.30;99.90;;;;;;2092159;28;20039;-91
2023/09/19 03:38:28;;;;;;;5.07;2.50;;;17.30;99.90;;;;;;2087998;28;20040;-85
2023/09/19 03:39:29;;;;;;;3.67;2.30;;;17.30;99.90;;;;;;2096905;28;20035;-87
2023/09/19 03:40:30;;;;;;;3.33;2.30;;;17.30;99.90;;;;;;2093323;28;20576;-86
2023/09/19 03:41:32;;;;;;;5.25;2.35;;;17.30;99.90;;;;;;2099954;28;20035;-90
2023/09/19 03:42:36;;;;;;;3.05;2.30;;;17.30;99.90;;;;;;2081103;28;20033;-88
2023/09/19 03:43:37;;;;;;;3.88;2.30;;;17.30;99.90;;;;;;2083686;28;20638;-87
2023/09/19 03:44:38;;;;;;;3.25;2.50;;;17.30;99.90;;;;;;2089796;28;20035;-88
2023/09/19 03:45:40;;;;;;;2.60;2.30;;;17.30;99.90;;;;;;2091738;28;20025;-88
2023/09/19 03:46:40;;;;;;;3.75;2.10;;;17.30;99.90;;;;;;2104645;28;20033;-85
2023/09/19 03:47:41;;;;;;;6.55;2.22;;;17.30;99.90;;;;;;2086111;28;20539;-85
2023/09/19 03:48:43;;;;;;;5.07;2.10;;;17.20;99.90;;;;;;2096684;28;20021;-89
2023/09/19 03:49:45;;;;;;;4.45;2.35;;;17.20;99.90;;;;;;2098931;28;20051;-86
2023/09/19 03:50:45;;;;;;;3.17;2.20;;;17.20;99.90;;;;;;2080956;28;20087;-84
2023/09/19 03:51:46;;;;;;;3.17;2.30;;;17.20;99.90;;;;;;2085973;28;20052;-87
2023/09/19 03:52:46;;;;;;;3.17;2.20;;;17.20;99.90;;;;;;2084529;28;20109;-86
2023/09/19 03:53:49;;;;;;;3.42;2.30;;;17.10;99.90;;;;;;2082018;28;20679;-85
2023/09/19 03:54:49;;;;;;;3.92;2.17;;;17.10;99.90;;;;;;2080158;28;20056;-88
2023/09/19 03:55:52;;;;;;;4.78;2.20;;;17.10;99.90;;;;;;2078053;28;20419;-86
2023/09/19 03:56:53;;;;;;;3.60;2.30;;;17.10;99.90;;;;;;2078003;28;20033;-87
2023/09/19 03:57:53;;;;;;;4.40;2.20;;;17.10;99.90;;;;;;2089443;28;20053;-71
2023/09/19 03:58:55;;;;;;;4.10;2.50;;;17.10;99.90;;;;;;2084096;28;20067;-71
2023/09/19 03:59:55;;;;;;;2.30;2.03;;;17.10;99.90;;;;;;2086436;28;20119;-70
2023/09/19 04:00:58;;;;;;;3.45;2.20;;;17.10;99.90;;;;;;2087123;28;20028;-72
2023/09/19 04:01:59;;;;;;;3.53;2.20;;;17.10;99.90;;;;;;2083160;28;20075;-70
2023/09/19 04:03:02;;;;;;;3.88;2.17;;;17.10;99.90;;;;;;2083794;28;20436;-70
2023/09/19 04:04:08;;;;;;;3.67;2.20;;;17.10;99.90;;;;;;2079492;28;20723;-70
2023/09/19 04:05:10;;;;;;;2.42;1.95;;;17.10;99.90;;;;;;2080134;28;20598;-70
2023/09/19 04:06:15;;;;;;;3.78;2.20;;;17.10;99.90;;;;;;2083796;28;20549;-71
2023/09/19 04:07:16;;;;;;;5.60;2.30;;;17.10;99.90;;;;;;2087669;28;20399;-70
2023/09/19 04:08:17;;;;;;;3.17;1.90;;;17.20;99.90;;;;;;2079258;28;20052;-76
2023/09/19 04:09:18;;;;;;;3.75;1.95;;;17.20;99.90;;;;;;2082915;28;20416;-77
2023/09/19 04:10:18;;;;;;;4.45;2.05;;;17.20;99.90;;;;;;2090977;28;20085;-75
2023/09/19 04:11:19;;;;;;;4.80;2.08;;;17.20;99.90;;;;;;2083632;28;20706;-76
2023/09/19 04:12:21;;;;;;;3.22;2.10;;;17.20;99.90;;;;;;2095223;28;20033;-76
2023/09/19 04:13:21;;;;;;;5.18;2.10;;;17.30;99.90;;;;;;2086250;28;20039;-75
2023/09/19 04:14:22;;;;;;;2.88;1.98;;;17.30;99.90;;;;;;2075466;28;20415;-76
2023/09/19 04:15:24;;;;;;;4.28;2.20;;;17.30;99.90;;;;;;2083377;28;20040;-76
2023/09/19 04:16:27;;;;;;;2.83;2.00;;;17.30;99.90;;;;;;2087067;28;20031;-76
2023/09/19 04:17:28;;;;;;;4.07;2.00;;;17.30;99.90;;;;;;2088300;28;20041;-76
2023/09/19 04:18:30;;;;;;;2.83;1.77;;;17.40;99.90;;;;;;2088959;28;20017;-76
2023/09/19 04:19:31;;;;;;;3.78;2.50;;;17.40;99.90;;;;;;2092772;28;20064;-77
2023/09/19 04:20:32;;;;;;;3.78;1.95;;;17.50;99.90;;;;;;2076799;28;20133;-77
2023/09/19 04:21:32;;;;;;;3.20;1.90;;;17.40;99.90;;;;;;2084534;28;20112;-77
2023/09/19 04:22:33;;;;;;;4.13;2.13;;;17.50;99.90;;;;;;2092512;28;20394;-76
2023/09/19 04:23:34;;;;;;;2.50;1.90;;;17.50;99.90;;;;;;2087148;28;20048;-76
2023/09/19 04:24:34;;;;;;;4.32;2.03;;;17.50;99.90;;;;;;2086484;28;20067;-75
2023/09/19 04:25:36;;;;;;;3.10;1.90;;;17.50;99.90;;;;;;2090966;28;20486;-75
2023/09/19 04:26:37;;;;;;;3.50;2.15;;;17.50;99.90;;;;;;2092513;28;20028;-76
2023/09/19 04:27:38;;;;;;;5.13;2.60;;;17.50;99.90;;;;;;2085114;28;20131;-75
2023/09/19 04:28:39;;;;;;;9.27;2.20;;;17.50;99.90;;;;;;2084843;28;20025;-77
2023/09/19 04:29:41;;;;;;;3.50;2.15;;;17.50;99.90;;;;;;2089961;28;20059;-76
2023/09/19 04:30:43;;;;;;;5.03;2.08;;;17.50;99.90;;;;;;2084265;28;20037;-76
2023/09/19 04:31:45;;;;;;;2.50;2.05;;;17.50;99.90;;;;;;2066876;28;20492;-78
2023/09/19 04:32:50;;;;;;;5.78;2.10;;;17.50;99.90;;;;;;2075035;28;20040;-77
2023/09/19 04:33:51;;;;;;;2.70;2.00;;;17.50;99.90;;;;;;2083135;28;20863;-77
2023/09/19 04:34:54;;;;;;;3.22;1.90;;;17.50;99.90;;;;;;2075769;28;20615;-77
2023/09/19 04:35:55;;;;;;;3.05;1.95;;;17.50;99.90;;;;;;2089602;28;20029;-84
2023/09/19 04:36:58;;;;;;;5.18;2.40;;;17.50;99.90;;;;;;2084385;28;20029;-82
2023/09/19 04:37:58;;;;;;;3.92;2.10;;;17.50;99.90;;;;;;2085926;28;20392;-84
2023/09/19 04:38:59;;;;;;;4.13;2.17;;;17.40;99.90;;;;;;2092457;28;20016;-83
2023/09/19 04:40:00;;;;;;;4.88;2.10;;;17.40;99.90;;;;;;2085567;28;20146;-81
2023/09/19 04:41:00;;;;;;;4.30;2.40;;;17.50;99.90;;;;;;2077830;28;20059;-81
2023/09/19 04:42:01;;;;;;;2.92;2.40;;;17.40;99.90;;;;;;2089446;28;20074;-81
2023/09/19 04:43:02;;;;;;;2.92;2.10;;;17.40;99.90;;;;;;2095087;28;20118;-82
2023/09/19 04:44:03;;;;;;;3.75;2.28;;;17.40;99.90;;;;;;2081060;28;20526;-81
2023/09/19 04:45:04;;;;;;;3.40;1.85;;;17.40;99.90;;;;;;2093037;28;20036;-82
2023/09/19 04:46:06;;;;;;;3.35;1.95;;;17.40;99.90;;;;;;2093501;28;20043;-82
2023/09/19 04:47:07;;;;;;;3.95;2.15;;;17.30;99.90;;;;;;2086026;28;20036;-81
2023/09/19 04:48:08;;;;;;;5.32;2.22;;;17.30;99.90;;;;;;2092065;28;20111;-81
2023/09/19 04:49:09;;;;;;;5.63;2.47;;;17.30;99.90;;;;;;2091586;28;20115;-81
2023/09/19 04:50:13;;;;;;;3.60;2.10;;;17.30;99.90;;;;;;2076673;28;20033;-80
2023/09/19 04:51:15;;;;;;;3.55;2.17;;;17.40;99.90;;;;;;2067976;28;20034;-81
2023/09/19 04:52:15;;;;;;;2.83;2.10;;;17.40;99.90;;;;;;2082673;28;20047;-81
2023/09/19 04:53:17;;;;;;;4.22;2.20;;;17.40;99.90;;;;;;2088039;28;20036;-82
2023/09/19 04:54:18;;;;;;;4.45;2.40;;;17.40;99.90;;;;;;2091994;28;20408;-82
2023/09/19 04:55:19;;;;;;;5.53;2.45;;;17.40;99.90;;;;;;2083488;28;20032;-82
2023/09/19 04:56:20;;;;;;;3.45;2.05;;;17.40;99.90;;;;;;2083951;28;20098;-80
2023/09/19 04:57:21;;;;;;;4.93;2.83;;;17.40;99.90;;;;;;2090944;28;20033;-83
2023/09/19 04:58:22;;;;;;;11.02;6.97;;;17.40;99.90;;;;;;2086618;28;20158;-81
2023/09/19 04:59:23;;;;;;;11.65;8.70;;;17.50;99.90;;;;;;2084856;28;20033;-79
2023/09/19 05:00:24;;;;;;;2.78;2.22;;;17.50;99.90;;;;;;2095582;28;20037;-79
2023/09/19 05:01:25;;;;;;;5.40;2.28;;;17.50;99.90;;;;;;2093940;28;20579;-78
2023/09/19 05:02:30;;;;;;;3.55;2.30;;;17.50;99.90;;;;;;2083753;28;20785;-78
2023/09/19 05:03:31;;;;;;;4.13;2.30;;;17.50;99.90;;;;;;2088483;28;20124;-78
2023/09/19 05:04:32;;;;;;;4.22;2.15;;;17.50;99.90;;;;;;2091710;28;20032;-78
2023/09/19 05:05:34;;;;;;;4.28;2.28;;;17.50;99.90;;;;;;2086463;28;20033;-79
2023/09/19 05:06:35;;;;;;;3.47;2.03;;;17.50;99.90;;;;;;2070760;28;20129;-78
2023/09/19 05:07:36;;;;;;;3.80;2.17;;;17.50;99.90;;;;;;2079340;28;20037;-79
2023/09/19 05:08:36;;;;;;;2.28;1.98;;;17.50;99.90;;;;;;2089986;28;20093;-78
2023/09/19 05:09:37;;;;;;;3.20;2.20;;;17.50;99.90;;;;;;2089737;28;20035;-78
2023/09/19 05:10:37;;;;;;;3.90;2.40;;;17.50;99.90;;;;;;2086293;28;20044;-80
2023/09/19 05:11:38;;;;;;;3.90;2.17;;;17.50;99.90;;;;;;2082866;28;20464;-81
2023/09/19 05:12:40;;;;;;;4.30;2.30;;;17.50;99.90;;;;;;2079598;28;20115;-77
2023/09/19 05:13:41;;;;;;;5.55;2.30;;;17.50;99.90;;;;;;2085287;28;20039;-76
2023/09/19 05:14:41;;;;;;;3.47;2.30;;;17.50;99.90;;;;;;2091311;28;20051;-77
2023/09/19 05:15:42;;;;;;;5.22;2.40;;;17.50;99.90;;;;;;2086478;28;20721;-78
2023/09/19 05:16:42;;;;;;;3.65;2.20;;;17.50;99.90;;;;;;2091768;28;20414;-79
2023/09/19 05:17:54;;;;;;;4.47;2.53;;;17.50;99.90;;;;;;2088341;28;20032;-78
2023/09/19 05:18:55;;;;;;;4.13;2.30;;;17.60;99.90;;;;;;2083655;28;20063;-78
2023/09/19 05:19:55;;;;;;;4.00;2.10;;;17.60;99.90;;;;;;2091604;28;20023;-80
2023/09/19 05:20:56;;;;;;;3.40;2.22;;;17.60;99.90;;;;;;2088349;28;20030;-79
2023/09/19 05:21:57;;;;;;;3.20;2.20;;;17.60;99.90;;;;;;2089361;28;20021;-78
2023/09/19 05:23:01;;;;;;;4.22;1.92;;;17.60;99.90;;;;;;2092872;28;20016;-80
2023/09/19 05:24:02;;;;;;;4.88;2.85;;;17.60;99.90;;;;;;2089529;28;20052;-78
2023/09/19 05:25:04;;;;;;;4.30;2.17;;;17.60;99.90;;;;;;2091679;28;20515;-77
2023/09/19 05:26:05;;;;;;;6.57;3.08;;;17.60;99.90;;;;;;2091094;28;20060;-77
2023/09/19 05:27:07;;;;;;;3.60;2.40;;;17.60;99.90;;;;;;2078713;28;20037;-78
2023/09/19 05:28:14;;;;;;;5.22;2.20;;;17.60;99.90;;;;;;2082831;28;20028;-79
2023/09/19 05:29:15;;;;;;;6.18;2.42;;;17.60;99.90;;;;;;2084235;28;20098;-86